HID weather

Horn Island Airport
Horn Island, Queensland, Australia

Public forecast

Using degrees Celsius for public forecast. Weather courtesy of forecast.io.

METAR (pilot weather report)

Retrieved 2019/05/24 04:30 UTC (0 seconds ago):

YHID 240430Z AUTO 11015KT 9999 // NCD 29/24 Q1011

TAF (pilot weather forecast)

Forecast is more than 12 hours old.

Retrieved 2019/05/23 00:00 UTC (1 day ago):

TAF YHID 232249Z 2400/2424 12016G26KT 9999 SCT020 SCT035 FM240800 13014KT 9999 -SHRA SCT018 SCT035 INTER 2418/2424 12015G25KT 4000 SHRA FEW008 BKN015